createdAt,value
2023-04-07T00:01:43.938Z,98682.22
2023-04-07T00:04:28.880Z,98678.72
2023-04-07T00:07:14.109Z,98679.16
2023-04-07T00:09:59.167Z,98676.81
2023-04-07T00:12:44.269Z,98685.66
2023-04-07T00:15:29.071Z,98691.97
2023-04-07T00:18:14.191Z,98682.16
2023-04-07T00:20:59.014Z,98689.28
2023-04-07T00:23:44.377Z,98690.47
2023-04-07T00:26:30.989Z,98701.25
2023-04-07T00:29:16.049Z,98686.34
2023-04-07T00:32:00.995Z,98692.66
2023-04-07T00:34:45.980Z,98702.06
2023-04-07T00:37:30.895Z,98686.97
2023-04-07T00:40:16.975Z,98685.81
2023-04-07T00:43:01.865Z,98695.03
2023-04-07T00:45:46.959Z,98701.91
2023-04-07T00:48:32.066Z,98699.59
2023-04-07T00:51:20.632Z,98699.00
2023-04-07T00:54:05.748Z,98708.63
2023-04-07T00:56:50.618Z,98708.28
2023-04-07T00:59:35.714Z,98702.38
2023-04-07T01:02:38.288Z,98707.31
2023-04-07T01:05:38.422Z,98706.94
2023-04-07T01:08:47.485Z,98696.38
2023-04-07T01:11:42.101Z,98704.63
2023-04-07T01:14:36.055Z,98703.47
2023-04-07T01:17:35.818Z,98700.34
2023-04-07T01:20:26.258Z,98702.31
2023-04-07T01:23:27.167Z,98711.59
2023-04-07T01:26:11.755Z,98713.16
2023-04-07T01:29:34.052Z,98711.97
2023-04-07T01:32:23.509Z,98714.72
2023-04-07T01:35:13.241Z,98714.16
2023-04-07T01:37:59.817Z,98717.91
2023-04-07T01:40:47.382Z,98724.38
2023-04-07T01:43:32.331Z,98723.22
2023-04-07T01:46:17.146Z,98733.44
2023-04-07T01:49:02.859Z,98730.50
2023-04-07T01:51:49.942Z,98733.06
2023-04-07T01:54:35.183Z,98732.88
2023-04-07T01:57:20.324Z,98735.25
2023-04-07T02:00:59.312Z,98737.03
2023-04-07T02:04:12.262Z,98745.88
2023-04-07T02:07:10.937Z,98741.94
2023-04-07T02:10:05.857Z,98736.44
2023-04-07T02:12:52.414Z,98738.22
2023-04-07T02:15:40.589Z,98747.84
2023-04-07T02:18:27.509Z,98744.72
2023-04-07T02:21:15.146Z,98750.03
2023-04-07T02:24:06.784Z,98753.97
2023-04-07T02:26:51.360Z,98753.78
2023-04-07T02:29:36.039Z,98752.00
2023-04-07T02:32:21.007Z,98755.34
2023-04-07T02:35:06.166Z,98762.44
2023-04-07T02:37:53.243Z,98758.13
2023-04-07T02:40:38.049Z,98761.63
2023-04-07T02:43:23.198Z,98760.28
2023-04-07T02:46:09.273Z,98770.47
2023-04-07T02:48:54.369Z,98765.78
2023-04-07T02:51:39.278Z,98769.50
2023-04-07T02:54:24.068Z,98774.59
2023-04-07T02:57:09.249Z,98773.81
2023-04-07T02:59:56.317Z,98773.81
2023-04-07T03:02:42.475Z,98776.56
2023-04-07T03:05:27.549Z,98783.25
2023-04-07T03:08:13.163Z,98790.72
2023-04-07T03:10:58.705Z,98788.56
2023-04-07T03:13:46.693Z,98795.22
2023-04-07T03:16:32.582Z,98796.78
2023-04-07T03:19:25.237Z,98797.41
2023-04-07T03:22:10.928Z,98800.16
2023-04-07T03:25:03.621Z,98807.19
2023-04-07T03:27:48.300Z,98798.38
2023-04-07T03:30:33.830Z,98809.16
2023-04-07T03:33:18.892Z,98814.66
2023-04-07T03:36:04.285Z,98811.69
2023-04-07T03:38:49.689Z,98826.19
2023-04-07T03:41:36.327Z,98819.34
2023-04-07T03:44:21.216Z,98827.78
2023-04-07T03:47:05.867Z,98822.69
2023-04-07T03:49:52.235Z,98820.94
2023-04-07T03:52:39.546Z,98835.44
2023-04-07T03:55:36.297Z,98835.44
2023-04-07T03:58:28.441Z,98841.53
2023-04-07T04:01:15.000Z,98848.78
2023-04-07T04:04:02.552Z,98854.47
2023-04-07T04:06:49.042Z,98858.59
2023-04-07T04:09:49.896Z,98860.94
2023-04-07T04:12:36.045Z,98864.47
2023-04-07T04:15:26.496Z,98867.81
2023-04-07T04:18:11.690Z,98868.81
2023-04-07T04:20:57.841Z,98870.94
2023-04-07T04:23:42.691Z,98881.94
2023-04-07T04:26:29.183Z,98886.06
2023-04-07T04:29:18.321Z,98892.56
2023-04-07T04:32:04.102Z,98892.56
2023-04-07T04:34:49.358Z,98894.13
2023-04-07T04:37:34.324Z,98893.94
2023-04-07T04:40:20.314Z,98899.81
2023-04-07T04:43:08.935Z,98907.47
2023-04-07T04:45:56.389Z,98907.66
2023-04-07T04:48:44.236Z,98905.50
2023-04-07T04:51:29.563Z,98916.47
2023-04-07T04:54:20.521Z,98911.38
2023-04-07T04:57:05.513Z,98918.66
2023-04-07T04:59:51.809Z,98929.03
2023-04-07T05:02:37.200Z,98929.22
2023-04-07T05:05:24.164Z,98931.97
2023-04-07T05:08:11.085Z,98941.78
2023-04-07T05:10:57.488Z,98936.50
2023-04-07T05:13:44.350Z,98945.16
2023-04-07T05:16:29.358Z,98948.47
2023-04-07T05:19:14.879Z,98951.63
2023-04-07T05:21:59.834Z,98951.44
2023-04-07T05:24:45.554Z,98954.19
2023-04-07T05:27:30.430Z,98962.59
2023-04-07T05:30:20.529Z,98963.78
2023-04-07T05:33:05.390Z,98966.34
2023-04-07T05:35:58.427Z,98963.66
2023-04-07T05:38:43.208Z,98980.97
2023-04-07T05:41:32.193Z,98984.28
2023-04-07T05:44:17.768Z,98983.28
2023-04-07T05:47:08.218Z,98982.53
2023-04-07T05:49:54.760Z,98978.78
2023-04-07T05:52:39.630Z,98989.97
2023-04-07T05:55:36.231Z,98991.53
2023-04-07T05:58:22.324Z,99003.09
2023-04-07T06:01:10.447Z,99002.72
2023-04-07T06:03:55.374Z,99009.78
2023-04-07T06:06:43.036Z,99000.78
2023-04-07T06:09:27.800Z,99008.28
2023-04-07T06:12:12.867Z,99015.13
2023-04-07T06:14:57.506Z,99011.78
2023-04-07T06:17:44.931Z,99015.94
2023-04-07T06:20:30.641Z,99028.88
2023-04-07T06:23:16.364Z,99035.19
2023-04-07T06:26:01.371Z,99044.59
2023-04-07T06:28:47.875Z,99042.25
2023-04-07T06:31:32.812Z,99043.41
2023-04-07T06:34:17.874Z,99051.31
2023-04-07T06:37:04.758Z,99057.56
2023-04-07T06:39:50.938Z,99058.94
2023-04-07T06:42:36.068Z,99063.41
2023-04-07T06:45:29.909Z,99064.31
2023-04-07T06:48:15.010Z,99067.78
2023-04-07T06:51:00.436Z,99067.00
2023-04-07T06:53:48.020Z,99067.94
2023-04-07T06:56:33.233Z,99077.06
2023-04-07T06:59:20.676Z,99078.47
2023-04-07T07:02:07.036Z,99083.66
2023-04-07T07:04:51.703Z,99087.13
2023-04-07T07:07:37.109Z,99088.03
2023-04-07T07:10:22.170Z,99089.63
2023-04-07T07:13:07.188Z,99095.81
2023-04-07T07:15:52.078Z,99097.13
2023-04-07T07:18:36.727Z,99100.22
2023-04-07T07:21:21.745Z,99098.66
2023-04-07T07:24:06.667Z,99097.03
2023-04-07T07:26:51.505Z,99106.25
2023-04-07T07:29:36.467Z,99107.03
2023-04-07T07:32:20.990Z,99112.34
2023-04-07T07:35:05.826Z,99112.19
2023-04-07T07:37:53.852Z,99112.75
2023-04-07T07:40:38.974Z,99126.66
2023-04-07T07:43:23.879Z,99129.00
2023-04-07T07:46:09.110Z,99129.94
2023-04-07T07:48:54.014Z,99136.34
2023-04-07T07:51:39.135Z,99137.34
2023-04-07T07:54:24.025Z,99146.50
2023-04-07T07:57:09.033Z,99146.28
2023-04-07T07:59:54.056Z,99150.19
2023-04-07T08:02:39.315Z,99151.66
2023-04-07T08:05:24.143Z,99152.44
2023-04-07T08:08:08.929Z,99152.91
2023-04-07T08:10:54.118Z,99161.19
2023-04-07T08:13:39.646Z,99162.88
2023-04-07T08:16:26.240Z,99154.94
2023-04-07T08:19:11.536Z,99168.06
2023-04-07T08:21:56.317Z,99180.22
2023-04-07T08:24:40.952Z,99176.00
2023-04-07T08:27:25.811Z,99181.56
2023-04-07T08:30:10.814Z,99191.00
2023-04-07T08:32:56.231Z,99190.69
2023-04-07T08:35:40.875Z,99191.63
2023-04-07T08:38:25.768Z,99184.91
2023-04-07T08:41:13.028Z,99194.31
2023-04-07T08:43:58.135Z,99198.66
2023-04-07T08:46:43.157Z,99198.28
2023-04-07T08:49:29.597Z,99201.16
2023-04-07T08:52:15.931Z,99200.66
2023-04-07T08:55:06.094Z,99200.59
2023-04-07T08:57:51.440Z,99210.78
2023-04-07T09:00:36.425Z,99211.47
2023-04-07T09:03:23.472Z,99208.97
2023-04-07T09:06:10.358Z,99203.25
2023-04-07T09:08:55.368Z,99209.53
2023-04-07T09:11:40.583Z,99207.19
2023-04-07T09:14:25.868Z,99204.28
2023-04-07T09:17:10.447Z,99210.78
2023-04-07T09:20:00.287Z,99205.31
2023-04-07T09:22:45.577Z,99219.63
2023-04-07T09:25:31.373Z,99218.53
2023-04-07T09:28:16.267Z,99226.44
2023-04-07T09:31:01.057Z,99230.56
2023-04-07T09:33:47.534Z,99221.19
2023-04-07T09:36:41.742Z,99224.47
2023-04-07T09:39:26.725Z,99235.72
2023-04-07T09:42:11.566Z,99236.91
2023-04-07T09:44:56.495Z,99237.38
2023-04-07T09:47:41.418Z,99242.91
2023-04-07T09:50:35.203Z,99243.47
2023-04-07T09:53:20.786Z,99248.41
2023-04-07T09:56:05.881Z,99250.47
2023-04-07T09:58:53.556Z,99260.88
2023-04-07T10:01:38.928Z,99251.16
2023-04-07T10:04:25.072Z,99255.28
2023-04-07T10:07:10.013Z,99254.38
2023-04-07T10:09:55.094Z,99254.16
2023-04-07T10:12:41.559Z,99258.91
2023-04-07T10:15:26.590Z,99265.31
2023-04-07T10:18:13.442Z,99264.66
2023-04-07T10:21:03.899Z,99272.09
2023-04-07T10:23:57.848Z,99268.03
2023-04-07T10:26:42.782Z,99269.38
2023-04-07T10:29:30.901Z,99271.94
2023-04-07T10:32:16.727Z,99278.03
2023-04-07T10:35:01.547Z,99275.72
2023-04-07T10:38:15.851Z,99277.47
2023-04-07T10:41:38.837Z,99286.38
2023-04-07T10:44:53.010Z,99284.94
2023-04-07T10:48:00.153Z,99298.09
2023-04-07T10:51:06.935Z,99302.22
2023-04-07T10:54:22.327Z,99300.78
2023-04-07T10:57:10.382Z,99299.06
2023-04-07T11:00:10.793Z,99298.09
2023-04-07T11:02:55.960Z,99294.56
2023-04-07T11:05:42.252Z,99302.13
2023-04-07T11:08:41.250Z,99300.84
2023-04-07T11:11:40.965Z,99305.47
2023-04-07T11:14:27.540Z,99305.25
2023-04-07T11:17:16.494Z,99303.56
2023-04-07T11:20:01.298Z,99309.03
2023-04-07T11:22:59.523Z,99308.06
2023-04-07T11:25:45.976Z,99305.41
2023-04-07T11:28:31.116Z,99308.25
2023-04-07T11:31:30.653Z,99313.66
2023-04-07T11:34:15.330Z,99299.78
2023-04-07T11:37:24.940Z,99307.34
2023-04-07T11:40:10.853Z,99323.66
2023-04-07T11:42:56.459Z,99320.31
2023-04-07T11:45:41.926Z,99326.34
2023-04-07T11:48:30.652Z,99324.66
2023-04-07T11:51:22.079Z,99320.44
2023-04-07T11:54:07.415Z,99327.56
2023-04-07T11:56:54.945Z,99327.06
2023-04-07T11:59:40.845Z,99328.97
2023-04-07T12:02:35.470Z,99334.78
2023-04-07T12:05:20.388Z,99332.78
2023-04-07T12:08:05.919Z,99338.09
2023-04-07T12:11:03.957Z,99335.47
2023-04-07T12:13:48.564Z,99343.78
2023-04-07T12:16:38.527Z,99331.38
2023-04-07T12:19:27.613Z,99340.13
2023-04-07T12:22:12.339Z,99337.81
2023-04-07T12:24:56.793Z,99343.25
2023-04-07T12:27:43.742Z,99343.13
2023-04-07T12:30:28.962Z,99339.81
2023-04-07T12:33:13.835Z,99348.66
2023-04-07T12:35:58.943Z,99345.53
2023-04-07T12:38:44.092Z,99343.38
2023-04-07T12:41:29.023Z,99345.16
2023-04-07T12:44:15.058Z,99348.72
2023-04-07T12:47:00.126Z,99345.81
2023-04-07T12:49:44.824Z,99346.50
2023-04-07T12:52:29.280Z,99343.50
2023-04-07T12:55:13.945Z,99344.06
2023-04-07T12:57:59.850Z,99340.44
2023-04-07T13:00:47.131Z,99343.50
2023-04-07T13:03:32.143Z,99344.25
2023-04-07T13:06:17.031Z,99350.88
2023-04-07T13:09:02.018Z,99344.84
2023-04-07T13:11:46.867Z,99345.28
2023-04-07T13:14:31.839Z,99344.94
2023-04-07T13:17:18.034Z,99345.00
2023-04-07T13:20:03.900Z,99348.31
2023-04-07T13:22:52.057Z,99348.53
2023-04-07T13:25:48.267Z,99354.06
2023-04-07T13:28:33.382Z,99348.16
2023-04-07T13:31:18.531Z,99346.31
2023-04-07T13:34:03.421Z,99357.28
2023-04-07T13:36:48.571Z,99348.94
2023-04-07T13:39:33.566Z,99355.66
2023-04-07T13:42:20.247Z,99348.94
2023-04-07T13:45:05.232Z,99362.97
2023-04-07T13:47:50.083Z,99367.09
2023-04-07T13:50:36.681Z,99361.16
2023-04-07T13:53:22.443Z,99359.19
2023-04-07T13:56:09.013Z,99359.19
2023-04-07T13:58:54.300Z,99359.19
2023-04-07T14:01:39.169Z,99364.34
2023-04-07T14:04:23.884Z,99365.06
2023-04-07T14:07:09.208Z,99361.28
2023-04-07T14:09:54.023Z,99365.41
2023-04-07T14:12:38.745Z,99368.50
2023-04-07T14:15:23.840Z,99367.47
2023-04-07T14:18:09.045Z,99373.25
2023-04-07T14:20:54.433Z,99372.69
2023-04-07T14:23:39.249Z,99369.53
2023-04-07T14:26:24.313Z,99369.22
2023-04-07T14:29:09.504Z,99365.97
2023-04-07T14:31:54.251Z,99374.56
2023-04-07T14:34:39.168Z,99375.41
2023-04-07T14:37:25.745Z,99378.06
2023-04-07T14:40:11.011Z,99374.50
2023-04-07T14:45:45.556Z,99372.69
2023-04-07T14:48:30.564Z,99375.78
2023-04-07T14:51:15.373Z,99373.28
2023-04-07T14:54:00.098Z,99377.66
2023-04-07T14:56:44.965Z,99375.50
2023-04-07T14:59:29.858Z,99378.06
2023-04-07T15:02:14.968Z,99377.09
2023-04-07T15:04:59.706Z,99374.84
2023-04-07T15:07:46.719Z,99382.50
2023-04-07T15:10:34.882Z,99385.78
2023-04-07T15:13:20.172Z,99380.06
2023-04-07T15:16:13.969Z,99385.22
2023-04-07T15:18:59.165Z,99380.06
2023-04-07T15:21:43.876Z,99388.56
2023-04-07T15:24:29.133Z,99386.44
2023-04-07T15:27:14.132Z,99382.56
2023-04-07T15:29:59.995Z,99387.81
2023-04-07T15:33:03.737Z,99392.66
2023-04-07T15:35:48.493Z,99392.94
2023-04-07T15:38:34.300Z,99391.66
2023-04-07T15:41:19.137Z,99397.50
2023-04-07T15:44:04.129Z,99396.78
2023-04-07T15:46:49.277Z,99406.53
2023-04-07T15:49:36.706Z,99399.97
2023-04-07T15:52:21.576Z,99398.06
2023-04-07T15:55:06.658Z,99391.72
2023-04-07T15:57:52.584Z,99403.66
2023-04-07T16:00:38.530Z,99398.97
2023-04-07T16:03:23.181Z,99411.72
2023-04-07T16:06:08.202Z,99412.41
2023-04-07T16:08:52.959Z,99404.09
2023-04-07T16:11:37.937Z,99407.44
2023-04-07T16:14:22.954Z,99397.91
2023-04-07T16:17:08.060Z,99406.69
2023-04-07T16:19:53.126Z,99405.38
2023-04-07T16:22:38.032Z,99410.53
2023-04-07T16:25:22.972Z,99415.69
2023-04-07T16:28:08.109Z,99419.59
2023-04-07T16:30:53.088Z,99418.94
2023-04-07T16:33:38.588Z,99432.31
2023-04-07T16:36:23.513Z,99432.81
2023-04-07T16:39:08.492Z,99437.19
2023-04-07T16:41:53.461Z,99437.00
2023-04-07T16:44:38.498Z,99447.66
2023-04-07T16:47:24.237Z,99440.66
2023-04-07T16:50:09.558Z,99448.28
2023-04-07T16:52:56.897Z,99447.03
2023-04-07T16:55:41.967Z,99454.59
2023-04-07T16:58:27.257Z,99452.91
2023-04-07T17:01:11.942Z,99449.50
2023-04-07T17:03:56.971Z,99465.34
2023-04-07T17:06:41.747Z,99463.88
2023-04-07T17:09:26.651Z,99467.31
2023-04-07T17:12:13.026Z,99478.22
2023-04-07T17:14:57.669Z,99479.50
2023-04-07T17:17:42.686Z,99480.97
2023-04-07T17:20:27.555Z,99486.91
2023-04-07T17:23:12.164Z,99484.59
2023-04-07T17:25:56.857Z,99484.47
2023-04-07T17:28:41.809Z,99489.69
2023-04-07T17:31:26.572Z,99481.69
2023-04-07T17:34:11.582Z,99491.19
2023-04-07T17:36:56.457Z,99491.13
2023-04-07T17:39:41.454Z,99491.66
2023-04-07T17:42:26.478Z,99493.44
2023-04-07T17:45:12.047Z,99489.75
2023-04-07T17:47:57.022Z,99490.94
2023-04-07T17:50:42.380Z,99498.84
2023-04-07T17:53:27.930Z,99504.41
2023-04-07T17:56:13.021Z,99503.69
2023-04-07T17:58:57.911Z,99509.81
2023-04-07T18:01:42.968Z,99512.47
2023-04-07T18:04:29.780Z,99517.03
2023-04-07T18:07:14.850Z,99514.31
2023-04-07T18:10:00.682Z,99520.38
2023-04-07T18:12:45.398Z,99515.38
2023-04-07T18:15:30.834Z,99515.06
2023-04-07T18:18:15.485Z,99520.41
2023-04-07T18:21:00.566Z,99524.03
2023-04-07T18:23:45.764Z,99529.03
2023-04-07T18:26:31.259Z,99525.75
2023-04-07T18:29:15.721Z,99539.25
2023-04-07T18:32:00.775Z,99537.03
2023-04-07T18:34:47.281Z,99538.00
2023-04-07T18:37:32.531Z,99545.81
2023-04-07T18:40:17.287Z,99542.47
2023-04-07T18:43:02.382Z,99542.22
2023-04-07T18:45:47.203Z,99547.19
2023-04-07T18:48:32.191Z,99557.31
2023-04-07T18:51:17.133Z,99550.13
2023-04-07T18:54:02.457Z,99555.13
2023-04-07T18:56:47.620Z,99560.81
2023-04-07T18:59:32.702Z,99559.19
2023-04-07T19:02:17.571Z,99554.66
2023-04-07T19:05:03.089Z,99560.06
2023-04-07T19:07:47.702Z,99566.16
2023-04-07T19:10:32.645Z,99562.03
2023-04-07T19:13:18.383Z,99561.88
2023-04-07T19:16:03.317Z,99562.31
2023-04-07T19:18:48.127Z,99555.53
2023-04-07T19:21:33.147Z,99545.56
2023-04-07T19:24:18.139Z,99550.69
2023-04-07T19:27:03.621Z,99548.66
2023-04-07T19:29:48.437Z,99543.56
2023-04-07T19:32:33.341Z,99552.59
2023-04-07T19:35:18.378Z,99544.56
2023-04-07T19:38:04.743Z,99547.84
2023-04-07T19:40:49.649Z,99547.53
2023-04-07T19:43:34.830Z,99539.84
2023-04-07T19:46:20.009Z,99544.88
2023-04-07T19:49:04.847Z,99543.81
2023-04-07T19:51:52.179Z,99553.50
2023-04-07T19:54:36.828Z,99551.16
2023-04-07T19:57:22.040Z,99549.22
2023-04-07T20:00:08.502Z,99548.88
2023-04-07T20:02:53.443Z,99546.16
2023-04-07T20:05:37.958Z,99556.06
2023-04-07T20:08:22.604Z,99541.97
2023-04-07T20:11:10.801Z,99550.59
2023-04-07T20:13:55.555Z,99553.34
2023-04-07T20:16:40.794Z,99552.31
2023-04-07T20:19:25.447Z,99558.53
2023-04-07T20:22:10.898Z,99558.06
2023-04-07T20:24:55.808Z,99563.47
2023-04-07T20:27:40.827Z,99563.16
2023-04-07T20:30:26.272Z,99567.00
2023-04-07T20:33:11.188Z,99578.91
2023-04-07T20:35:56.383Z,99568.09
2023-04-07T20:38:43.993Z,99566.84
2023-04-07T20:41:28.712Z,99573.03
2023-04-07T20:44:13.291Z,99580.53
2023-04-07T20:46:58.053Z,99575.44
2023-04-07T20:49:43.187Z,99577.19
2023-04-07T20:52:28.686Z,99577.81
2023-04-07T20:55:13.603Z,99576.38
2023-04-07T20:57:58.247Z,99582.75
2023-04-07T21:00:43.706Z,99580.84
2023-04-07T21:03:30.162Z,99576.25
2023-04-07T21:06:14.971Z,99576.69
2023-04-07T21:09:00.734Z,99580.84
2023-04-07T21:11:45.387Z,99566.84
2023-04-07T21:14:31.483Z,99568.75
2023-04-07T21:17:16.452Z,99569.69
2023-04-07T21:20:00.985Z,99572.53
2023-04-07T21:22:46.313Z,99568.75
2023-04-07T21:25:30.622Z,99572.53
2023-04-07T21:28:15.709Z,99570.50
2023-04-07T21:31:00.617Z,99565.59
2023-04-07T21:33:45.931Z,99579.38
2023-04-07T21:36:31.443Z,99575.56
2023-04-07T21:39:16.481Z,99569.53
2023-04-07T21:42:01.781Z,99571.72
2023-04-07T21:44:46.733Z,99569.97
2023-04-07T21:47:31.434Z,99576.03
2023-04-07T21:50:16.193Z,99568.53
2023-04-07T21:53:01.085Z,99573.13
2023-04-07T21:55:45.731Z,99561.06
2023-04-07T21:58:30.472Z,99557.41
2023-04-07T22:01:17.009Z,99553.44
2023-04-07T22:04:02.439Z,99557.88
2023-04-07T22:06:47.466Z,99555.50
2023-04-07T22:09:32.335Z,99554.69
2023-04-07T22:12:17.362Z,99561.38
2023-04-07T22:15:02.151Z,99558.38
2023-04-07T22:17:47.193Z,99554.56
2023-04-07T22:20:31.824Z,99563.44
2023-04-07T22:23:16.447Z,99561.38
2023-04-07T22:26:01.369Z,99563.72
2023-04-07T22:28:46.634Z,99558.13
2023-04-07T22:31:31.547Z,99563.22
2023-04-07T22:34:16.281Z,99573.41
2023-04-07T22:37:00.943Z,99555.28
2023-04-07T22:39:46.314Z,99559.13
2023-04-07T22:42:31.320Z,99561.28
2023-04-07T22:45:18.170Z,99551.88
2023-04-07T22:48:02.935Z,99557.75
2023-04-07T22:50:47.870Z,99551.22
2023-04-07T22:53:32.809Z,99556.78
2023-04-07T22:56:18.639Z,99558.19
2023-04-07T22:59:04.975Z,99547.03
2023-04-07T23:01:50.116Z,99542.75
2023-04-07T23:04:35.099Z,99540.38
2023-04-07T23:07:19.978Z,99534.84
2023-04-07T23:10:07.142Z,99543.41
2023-04-07T23:12:55.818Z,99535.66
2023-04-07T23:15:40.707Z,99536.94
2023-04-07T23:18:25.390Z,99533.31
2023-04-07T23:21:11.663Z,99531.56
2023-04-07T23:23:56.390Z,99537.13
2023-04-07T23:26:41.369Z,99538.72
2023-04-07T23:29:26.616Z,99543.81
2023-04-07T23:32:11.465Z,99544.28
2023-04-07T23:34:56.228Z,99533.81
2023-04-07T23:37:41.694Z,99540.38
2023-04-07T23:40:26.242Z,99548.38
2023-04-07T23:43:11.291Z,99542.63
2023-04-07T23:45:56.213Z,99542.25
2023-04-07T23:48:41.727Z,99543.31
2023-04-07T23:51:27.579Z,99538.66
2023-04-07T23:54:12.186Z,99547.84
2023-04-07T23:56:57.697Z,99545.41
2023-04-07T23:59:42.140Z,99541.41
